Climatologie pour Saint-Brevin les Pins
Jour • Résumé pour janvier 29, 2017 Système :  Métrique    Anglais   Mixte
« - 1 jour
+ 1 jour »
Jour Semaine Mois Année Personnalisé
  Maximum : Minimum : Moyenne :
Température sous abri : 10.6 °C 2.8 °C 8.3 °C
Point de rosée : 10.2 °C 2.2 °C 7.3 °C
Humidité : 98 % 88 % 94 %
Vitesse du vent : 32.2 km/h 0.0 km/h 11.2 km/h
Rafale : 40.2 km/h - -
Direction :- - South
Pression : 1018.8 hPa 1013.4 hPa -
Précipitations : 1.3 mm    
Historical Graphs
 
 
Tableau de données pour janvier 29, 2017
Heure Tempé Pt rosée Pression Vent Vitesse Rafale Humidité Taux pluie (/hr) Soleil
00:00 3.9 °C 3.2 °C 1018.8 hPa SSW 3.2 km/h 6.4 km/h 95 % 0.0 mm 0 W/m2
00:05 3.6 °C 3.0 °C 1018.8 hPa Calm   4.8 km/h 96 % 0.0 mm 0 W/m2
00:10 3.8 °C 3.2 °C 1018.8 hPa SSW 4.8 km/h 4.8 km/h 96 % 0.0 mm 0 W/m2
00:15 3.6 °C 3.0 °C 1018.8 hPa SSW 6.4 km/h 6.4 km/h 96 % 0.0 mm 0 W/m2
00:20 3.6 °C 3.0 °C 1018.8 hPa Calm   8.0 km/h 96 % 0.0 mm 0 W/m2
00:25 3.3 °C 2.7 °C 1018.8 hPa Calm   8.0 km/h 96 % 0.0 mm 0 W/m2
00:30 3.1 °C 2.5 °C 1018.8 hPa Calm   3.2 km/h 96 % 0.0 mm 0 W/m2
00:35 3.0 °C 2.4 °C 1018.8 hPa SSW 1.6 km/h 3.2 km/h 96 % 0.0 mm 0 W/m2
00:40 3.3 °C 2.8 °C 1018.8 hPa Calm   4.8 km/h 97 % 0.0 mm 0 W/m2
00:45 3.2 °C 2.6 °C 1018.8 hPa SSW 1.6 km/h 4.8 km/h 96 % 0.0 mm 0 W/m2
00:50 3.2 °C 2.7 °C 1018.8 hPa Calm   3.2 km/h 97 % 0.0 mm 0 W/m2
01:00 3.1 °C 2.6 °C 1018.8 hPa SSW 1.6 km/h 3.2 km/h 97 % 0.0 mm 0 W/m2
01:10 2.8 °C 2.2 °C 1018.8 hPa SSW 3.2 km/h 4.8 km/h 96 % 0.0 mm 0 W/m2
01:15 2.8 °C 2.3 °C 1018.8 hPa SSW 3.2 km/h 4.8 km/h 97 % 0.0 mm 0 W/m2
01:20 2.9 °C 2.5 °C 1018.8 hPa SSW 1.6 km/h 4.8 km/h 97 % 0.0 mm 0 W/m2
01:25 2.9 °C 2.5 °C 1018.8 hPa SSW 3.2 km/h 4.8 km/h 97 % 0.0 mm 0 W/m2
01:30 3.1 °C 2.6 °C 1018.5 hPa SSW 3.2 km/h 4.8 km/h 97 % 0.0 mm 0 W/m2
01:35 3.1 °C 2.6 °C 1018.8 hPa SSW 3.2 km/h 4.8 km/h 97 % 0.0 mm 0 W/m2
01:40 3.1 °C 2.6 °C 1018.5 hPa SSW 3.2 km/h 4.8 km/h 97 % 0.0 mm 0 W/m2
01:45 3.1 °C 2.6 °C 1018.5 hPa SSW 3.2 km/h 4.8 km/h 97 % 0.0 mm 0 W/m2
01:50 3.1 °C 2.7 °C 1018.5 hPa SSW 3.2 km/h 4.8 km/h 97 % 0.0 mm 0 W/m2
01:55 3.1 °C 2.6 °C 1018.5 hPa SSW 3.2 km/h 4.8 km/h 97 % 0.0 mm 0 W/m2
02:00 3.1 °C 2.6 °C 1018.5 hPa SSW 3.2 km/h 6.4 km/h 97 % 0.0 mm 0 W/m2
02:05 3.2 °C 2.7 °C 1018.5 hPa SSW 3.2 km/h 6.4 km/h 97 % 0.0 mm 0 W/m2
02:10 3.2 °C 2.8 °C 1018.5 hPa SSW 3.2 km/h 6.4 km/h 97 % 0.0 mm 0 W/m2
02:15 3.3 °C 2.9 °C 1018.5 hPa SSW 3.2 km/h 4.8 km/h 97 % 0.0 mm 0 W/m2
02:20 3.5 °C 3.1 °C 1018.5 hPa SSW 3.2 km/h 4.8 km/h 97 % 0.0 mm 0 W/m2
02:25 3.8 °C 3.5 °C 1018.5 hPa SSW 3.2 km/h 6.4 km/h 98 % 0.0 mm 0 W/m2
02:30 3.9 °C 3.5 °C 1018.5 hPa SSW 3.2 km/h 6.4 km/h 97 % 0.0 mm 0 W/m2
02:35 4.1 °C 3.7 °C 1018.5 hPa SSW 4.8 km/h 6.4 km/h 97 % 0.0 mm 0 W/m2
02:40 4.4 °C 4.2 °C 1018.5 hPa SSW 4.8 km/h 8.0 km/h 98 % 0.0 mm 0 W/m2
02:45 4.6 °C 4.2 °C 1018.5 hPa SSW 4.8 km/h 8.0 km/h 97 % 0.0 mm 0 W/m2
02:50 4.6 °C 4.2 °C 1018.5 hPa South 6.4 km/h 9.7 km/h 97 % 0.0 mm 0 W/m2
02:55 4.8 °C 4.4 °C 1018.5 hPa South 4.8 km/h 9.7 km/h 97 % 0.0 mm 0 W/m2
03:00 4.9 °C 4.5 °C 1018.5 hPa SSW 6.4 km/h 6.4 km/h 97 % 0.0 mm 0 W/m2
03:05 4.8 °C 4.4 °C 1018.5 hPa South 4.8 km/h 8.0 km/h 97 % 0.0 mm 0 W/m2
03:10 4.9 °C 4.5 °C 1018.5 hPa South 4.8 km/h 8.0 km/h 97 % 0.0 mm 0 W/m2
03:15 5.0 °C 4.6 °C 1018.5 hPa South 3.2 km/h 8.0 km/h 97 % 0.0 mm 0 W/m2
03:20 5.0 °C 4.6 °C 1018.5 hPa SSW 4.8 km/h 8.0 km/h 97 % 0.0 mm 0 W/m2
03:25 4.8 °C 4.4 °C 1018.5 hPa South 3.2 km/h 8.0 km/h 97 % 0.0 mm 0 W/m2
03:30 4.7 °C 4.1 °C 1018.8 hPa South 6.4 km/h 8.0 km/h 96 % 0.0 mm 0 W/m2
03:35 4.6 °C 4.2 °C 1018.5 hPa South 3.2 km/h 6.4 km/h 97 % 0.0 mm 0 W/m2
03:40 4.6 °C 4.1 °C 1018.5 hPa South 3.2 km/h 6.4 km/h 97 % 0.0 mm 0 W/m2
03:45 4.6 °C 4.0 °C 1018.5 hPa South 3.2 km/h 6.4 km/h 96 % 0.0 mm 0 W/m2
03:50 4.4 °C 3.8 °C 1018.5 hPa South 4.8 km/h 6.4 km/h 96 % 0.0 mm 0 W/m2
03:55 4.6 °C 4.1 °C 1018.5 hPa South 6.4 km/h 8.0 km/h 97 % 0.0 mm 0 W/m2
04:00 5.1 °C 4.6 °C 1018.5 hPa South 8.0 km/h 8.0 km/h 97 % 0.0 mm 0 W/m2
04:05 5.3 °C 4.9 °C 1018.5 hPa South 6.4 km/h 9.7 km/h 97 % 0.0 mm 0 W/m2
04:15 5.9 °C 5.5 °C 1018.5 hPa South 3.2 km/h 9.7 km/h 97 % 0.0 mm 0 W/m2
04:25 6.3 °C 5.7 °C 1018.5 hPa SSW 1.6 km/h 9.7 km/h 96 % 0.0 mm 0 W/m2
04:30 6.6 °C 6.0 °C 1018.5 hPa SSW 3.2 km/h 8.0 km/h 96 % 0.0 mm 0 W/m2
04:35 6.6 °C 6.0 °C 1018.5 hPa SSW 4.8 km/h 9.7 km/h 96 % 0.0 mm 0 W/m2
04:40 6.7 °C 5.9 °C 1018.5 hPa South 4.8 km/h 9.7 km/h 95 % 0.0 mm 0 W/m2
04:45 6.8 °C 6.0 °C 1018.5 hPa South 8.0 km/h 9.7 km/h 95 % 0.0 mm 0 W/m2
04:55 6.5 °C 5.8 °C 1018.5 hPa SSE 4.8 km/h 8.0 km/h 95 % 0.0 mm 0 W/m2
05:00 6.6 °C 5.9 °C 1018.5 hPa SSW 4.8 km/h 9.7 km/h 95 % 0.0 mm 0 W/m2
05:05 6.6 °C 5.8 °C 1018.5 hPa Calm   9.7 km/h 95 % 0.0 mm 0 W/m2
05:10 6.3 °C 5.4 °C 1018.5 hPa SE 6.4 km/h 8.0 km/h 94 % 0.0 mm 0 W/m2
05:15 6.3 °C 5.5 °C 1018.5 hPa SSE 6.4 km/h 9.7 km/h 95 % 0.0 mm 0 W/m2
05:20 6.2 °C 5.5 °C 1018.8 hPa SSE 3.2 km/h 9.7 km/h 95 % 0.0 mm 0 W/m2
05:25 6.2 °C 5.4 °C 1018.8 hPa SSE 4.8 km/h 8.0 km/h 95 % 0.0 mm 0 W/m2
05:30 6.2 °C 5.5 °C 1018.8 hPa South 4.8 km/h 8.0 km/h 95 % 0.0 mm 0 W/m2
05:35 6.3 °C 5.6 °C 1018.8 hPa South 6.4 km/h 8.0 km/h 95 % 0.0 mm 0 W/m2
05:40 6.3 °C 5.6 °C 1018.8 hPa SSW 6.4 km/h 8.0 km/h 95 % 0.0 mm 0 W/m2
05:45 6.5 °C 5.8 °C 1018.8 hPa SSE 4.8 km/h 8.0 km/h 95 % 0.0 mm 0 W/m2
05:50 6.4 °C 5.5 °C 1018.8 hPa SSW 4.8 km/h 9.7 km/h 94 % 0.0 mm 0 W/m2
05:55 6.3 °C 5.4 °C 1018.8 hPa SSE 4.8 km/h 9.7 km/h 94 % 0.0 mm 0 W/m2
06:00 6.3 °C 5.4 °C 1018.8 hPa SSE 4.8 km/h 8.0 km/h 94 % 0.0 mm 0 W/m2
06:05 6.2 °C 5.5 °C 1018.8 hPa SSE 1.6 km/h 8.0 km/h 95 % 0.0 mm 0 W/m2
06:10 6.3 °C 5.5 °C 1018.8 hPa SSE 3.2 km/h 9.7 km/h 95 % 0.0 mm 0 W/m2
06:15 6.2 °C 5.5 °C 1018.8 hPa SE 3.2 km/h 9.7 km/h 95 % 0.0 mm 0 W/m2
06:20 6.3 °C 5.5 °C 1018.8 hPa South 4.8 km/h 8.0 km/h 95 % 0.0 mm 0 W/m2
06:25 6.3 °C 5.6 °C 1018.8 hPa SE 4.8 km/h 8.0 km/h 95 % 0.0 mm 0 W/m2
06:30 6.3 °C 5.6 °C 1018.8 hPa SSE 1.6 km/h 8.0 km/h 95 % 0.0 mm 0 W/m2
06:35 6.3 °C 5.6 °C 1018.8 hPa SSE 3.2 km/h 6.4 km/h 95 % 0.0 mm 0 W/m2
06:45 6.4 °C 5.6 °C 1018.8 hPa Calm   6.4 km/h 95 % 0.0 mm 0 W/m2
06:50 6.4 °C 5.7 °C 1018.8 hPa SSE 4.8 km/h 6.4 km/h 95 % 0.0 mm 0 W/m2
06:55 6.4 °C 5.7 °C 1018.8 hPa SSE 3.2 km/h 6.4 km/h 95 % 0.0 mm 0 W/m2
07:00 6.4 °C 5.7 °C 1018.5 hPa SSE 6.4 km/h 8.0 km/h 95 % 0.0 mm 0 W/m2
07:05 6.4 °C 5.7 °C 1018.5 hPa SSE 4.8 km/h 8.0 km/h 95 % 0.0 mm 0 W/m2
07:10 6.5 °C 5.8 °C 1018.5 hPa SSE 4.8 km/h 8.0 km/h 95 % 0.0 mm 0 W/m2
07:15 6.6 °C 5.8 °C 1018.5 hPa SSE 4.8 km/h 8.0 km/h 95 % 0.0 mm 0 W/m2
07:25 6.7 °C 6.0 °C 1018.5 hPa South 3.2 km/h 11.3 km/h 95 % 0.0 mm 0 W/m2
07:30 6.8 °C 6.1 °C 1018.5 hPa South 3.2 km/h 11.3 km/h 95 % 0.0 mm 0 W/m2
07:35 6.9 °C 6.2 °C 1018.5 hPa South 3.2 km/h 9.7 km/h 95 % 0.0 mm 0 W/m2
07:40 7.1 °C 6.2 °C 1018.5 hPa SSE 4.8 km/h 9.7 km/h 94 % 0.0 mm 0 W/m2
07:45 7.2 °C 6.3 °C 1018.5 hPa South 4.8 km/h 14.5 km/h 94 % 0.0 mm 0 W/m2
07:50 7.3 °C 6.4 °C 1018.5 hPa South 9.7 km/h 14.5 km/h 94 % 0.0 mm 0 W/m2
07:55 7.3 °C 6.4 °C 1018.5 hPa SSE 8.0 km/h 12.9 km/h 94 % 0.0 mm 0 W/m2
08:00 7.3 °C 6.4 °C 1018.2 hPa SSE 8.0 km/h 16.1 km/h 94 % 0.0 mm 0 W/m2
08:05 7.4 °C 6.5 °C 1018.2 hPa South 12.9 km/h 16.1 km/h 94 % 0.0 mm 0 W/m2
08:10 7.6 °C 6.6 °C 1018.2 hPa SSE 9.7 km/h 17.7 km/h 93 % 0.0 mm 0 W/m2
08:15 7.8 °C 6.7 °C 1018.2 hPa South 8.0 km/h 17.7 km/h 93 % 0.0 mm 0 W/m2
08:20 7.8 °C 6.6 °C 1018.2 hPa South 9.7 km/h 19.3 km/h 92 % 0.0 mm 0 W/m2
08:25 7.9 °C 6.7 °C 1018.2 hPa SSW 11.3 km/h 19.3 km/h 92 % 0.0 mm 0 W/m2
08:30 7.9 °C 6.7 °C 1018.2 hPa SSE 9.7 km/h 16.1 km/h 92 % 0.0 mm 0 W/m2
08:35 8.0 °C 6.6 °C 1018.2 hPa SSE 11.3 km/h 16.1 km/h 91 % 0.0 mm 0 W/m2
08:40 7.9 °C 6.5 °C 1018.2 hPa SSW 11.3 km/h 16.1 km/h 91 % 0.0 mm 0 W/m2
08:45 7.8 °C 6.5 °C 1018.2 hPa South 9.7 km/h 16.1 km/h 91 % 0.0 mm 5 W/m2
08:50 7.8 °C 6.5 °C 1018.2 hPa South 11.3 km/h 16.1 km/h 91 % 0.0 mm 7 W/m2
08:55 7.9 °C 6.6 °C 1018.2 hPa SSE 6.4 km/h 16.1 km/h 91 % 0.0 mm 14 W/m2
09:00 8.0 °C 6.6 °C 1018.2 hPa South 6.4 km/h 16.1 km/h 91 % 0.0 mm 21 W/m2
09:05 8.1 °C 6.7 °C 1018.2 hPa South 9.7 km/h 19.3 km/h 91 % 0.0 mm 23 W/m2
09:10 8.1 °C 6.7 °C 1017.8 hPa SSW 8.0 km/h 19.3 km/h 91 % 0.0 mm 18 W/m2
09:15 8.2 °C 6.8 °C 1017.8 hPa SSE 14.5 km/h 16.1 km/h 91 % 0.0 mm 28 W/m2
09:20 8.3 °C 6.9 °C 1017.8 hPa South 9.7 km/h 16.1 km/h 91 % 0.0 mm 32 W/m2
09:25 8.4 °C 7.0 °C 1017.8 hPa South 9.7 km/h 16.1 km/h 91 % 0.0 mm 23 W/m2
09:30 8.4 °C 7.1 °C 1017.8 hPa South 8.0 km/h 19.3 km/h 91 % 0.0 mm 19 W/m2
09:35 8.5 °C 7.1 °C 1017.8 hPa South 17.7 km/h 24.1 km/h 91 % 0.0 mm 23 W/m2
09:40 8.6 °C 7.0 °C 1017.8 hPa SSE 14.5 km/h 24.1 km/h 90 % 0.0 mm 25 W/m2
09:45 8.6 °C 7.1 °C 1017.5 hPa South 9.7 km/h 20.9 km/h 90 % 0.0 mm 40 W/m2
09:50 8.7 °C 7.1 °C 1017.5 hPa South 9.7 km/h 22.5 km/h 90 % 0.0 mm 39 W/m2
09:55 8.7 °C 7.2 °C 1017.5 hPa South 12.9 km/h 22.5 km/h 90 % 0.0 mm 35 W/m2
10:00 8.8 °C 7.3 °C 1017.8 hPa South 8.0 km/h 22.5 km/h 90 % 0.0 mm 35 W/m2
10:05 8.9 °C 7.3 °C 1017.8 hPa South 11.3 km/h 24.1 km/h 90 % 0.0 mm 46 W/m2
10:10 9.0 °C 7.4 °C 1017.8 hPa SSW 11.3 km/h 24.1 km/h 90 % 0.0 mm 56 W/m2
10:15 9.1 °C 7.5 °C 1017.8 hPa South 16.1 km/h 19.3 km/h 90 % 0.0 mm 63 W/m2
10:20 9.1 °C 7.3 °C 1017.8 hPa South 9.7 km/h 19.3 km/h 89 % 0.0 mm 53 W/m2
10:25 9.1 °C 7.5 °C 1017.5 hPa South 14.5 km/h 17.7 km/h 90 % 0.0 mm 39 W/m2
10:30 9.1 °C 7.5 °C 1017.8 hPa SSE 9.7 km/h 19.3 km/h 90 % 0.0 mm 42 W/m2
10:35 9.1 °C 7.5 °C 1017.5 hPa SSE 11.3 km/h 24.1 km/h 90 % 0.0 mm 60 W/m2
10:40 9.1 °C 7.6 °C 1017.8 hPa SSE 8.0 km/h 24.1 km/h 90 % 0.0 mm 79 W/m2
10:45 9.2 °C 7.7 °C 1017.8 hPa SW 9.7 km/h 22.5 km/h 90 % 0.0 mm 77 W/m2
10:50 9.3 °C 7.7 °C 1017.8 hPa South 19.3 km/h 19.3 km/h 90 % 0.0 mm 86 W/m2
10:55 9.4 °C 7.8 °C 1017.8 hPa South 11.3 km/h 19.3 km/h 90 % 0.0 mm 84 W/m2
11:00 9.4 °C 7.8 °C 1017.8 hPa South 16.1 km/h 19.3 km/h 90 % 0.0 mm 79 W/m2
11:05 9.4 °C 7.9 °C 1017.5 hPa South 14.5 km/h 19.3 km/h 90 % 0.0 mm 98 W/m2
11:10 9.4 °C 7.9 °C 1017.5 hPa SE 9.7 km/h 20.9 km/h 90 % 0.0 mm 91 W/m2
11:15 9.4 °C 7.9 °C 1017.5 hPa South 11.3 km/h 20.9 km/h 90 % 0.0 mm 91 W/m2
11:20 9.4 °C 7.9 °C 1017.5 hPa SSW 11.3 km/h 19.3 km/h 90 % 0.0 mm 130 W/m2
11:25 9.6 °C 8.0 °C 1017.5 hPa SSE 11.3 km/h 19.3 km/h 90 % 0.0 mm 141 W/m2
11:30 9.7 °C 8.1 °C 1017.5 hPa SSW 12.9 km/h 19.3 km/h 90 % 0.0 mm 137 W/m2
11:35 9.7 °C 8.2 °C 1017.5 hPa SSE 11.3 km/h 29.0 km/h 90 % 0.0 mm 144 W/m2
11:40 9.8 °C 8.2 °C 1017.5 hPa SSE 12.9 km/h 29.0 km/h 90 % 0.0 mm 192 W/m2
11:45 9.9 °C 8.4 °C 1017.5 hPa SSW 14.5 km/h 25.7 km/h 90 % 0.0 mm 160 W/m2
11:50 10.0 °C 8.4 °C 1017.2 hPa South 6.4 km/h 25.7 km/h 90 % 0.0 mm 162 W/m2
12:00 10.2 °C 8.5 °C 1017.2 hPa SSW 8.0 km/h 30.6 km/h 89 % 0.0 mm 167 W/m2
12:05 10.3 °C 8.7 °C 1017.2 hPa SSE 11.3 km/h 30.6 km/h 90 % 0.0 mm 181 W/m2
12:10 10.3 °C 8.8 °C 1017.2 hPa South 22.5 km/h 29.0 km/h 90 % 0.0 mm 174 W/m2
12:15 10.3 °C 8.8 °C 1017.2 hPa SSW 16.1 km/h 27.4 km/h 90 % 0.0 mm 160 W/m2
12:20 10.4 °C 8.8 °C 1017.2 hPa SW 14.5 km/h 27.4 km/h 90 % 0.0 mm 167 W/m2
12:25 10.4 °C 8.8 °C 1017.2 hPa SSW 19.3 km/h 30.6 km/h 90 % 0.0 mm 151 W/m2
12:30 10.4 °C 8.9 °C 1016.8 hPa SSW 12.9 km/h 35.4 km/h 90 % 0.0 mm 141 W/m2
12:35 10.5 °C 8.9 °C 1016.8 hPa SSW 22.5 km/h 35.4 km/h 90 % 0.0 mm 130 W/m2
12:40 10.4 °C 8.9 °C 1016.8 hPa South 11.3 km/h 32.2 km/h 90 % 0.0 mm 130 W/m2
12:45 10.4 °C 8.9 °C 1016.8 hPa South 11.3 km/h 27.4 km/h 90 % 0.0 mm 144 W/m2
12:50 10.4 °C 9.0 °C 1016.8 hPa South 9.7 km/h 27.4 km/h 91 % 0.0 mm 142 W/m2
12:55 10.4 °C 9.0 °C 1016.8 hPa SSE 14.5 km/h 27.4 km/h 91 % 0.0 mm 121 W/m2
13:00 10.4 °C 9.0 °C 1016.5 hPa SSE 24.1 km/h 29.0 km/h 91 % 0.0 mm 109 W/m2
13:05 10.4 °C 9.0 °C 1016.5 hPa South 17.7 km/h 29.0 km/h 91 % 0.0 mm 111 W/m2
13:10 10.4 °C 9.2 °C 1016.5 hPa South 24.1 km/h 30.6 km/h 92 % 0.0 mm 192 W/m2
13:15 10.6 °C 9.3 °C 1016.5 hPa SE 11.3 km/h 30.6 km/h 92 % 0.0 mm 209 W/m2
13:20 10.6 °C 9.4 °C 1016.1 hPa South 16.1 km/h 29.0 km/h 92 % 0.0 mm 207 W/m2
13:25 10.6 °C 9.3 °C 1016.1 hPa South 24.1 km/h 32.2 km/h 92 % 0.0 mm 214 W/m2
13:30 10.6 °C 9.3 °C 1016.1 hPa South 8.0 km/h 32.2 km/h 92 % 0.0 mm 174 W/m2
13:35 10.6 °C 9.3 °C 1015.8 hPa South 14.5 km/h 35.4 km/h 92 % 0.0 mm 165 W/m2
13:40 10.6 °C 9.3 °C 1015.8 hPa SSW 19.3 km/h 35.4 km/h 92 % 0.0 mm 158 W/m2
13:45 10.6 °C 9.5 °C 1015.8 hPa South 12.9 km/h 29.0 km/h 93 % 0.0 mm 137 W/m2
13:50 10.6 °C 9.5 °C 1015.8 hPa South 20.9 km/h 30.6 km/h 93 % 0.0 mm 141 W/m2
13:55 10.6 °C 9.5 °C 1015.8 hPa SSE 17.7 km/h 32.2 km/h 93 % 0.0 mm 134 W/m2
14:00 10.6 °C 9.5 °C 1015.8 hPa South 9.7 km/h 32.2 km/h 93 % 0.0 mm 139 W/m2
14:05 10.6 °C 9.5 °C 1015.8 hPa South 14.5 km/h 27.4 km/h 93 % 0.0 mm 125 W/m2
14:10 10.6 °C 9.5 °C 1015.5 hPa South 11.3 km/h 27.4 km/h 93 % 0.0 mm 81 W/m2
14:15 10.5 °C 9.4 °C 1015.5 hPa SSW 24.1 km/h 29.0 km/h 93 % 0.0 mm 65 W/m2
14:20 10.4 °C 9.4 °C 1015.5 hPa SSW 14.5 km/h 30.6 km/h 93 % 0.0 mm 65 W/m2
14:25 10.4 °C 9.3 °C 1015.5 hPa SSE 8.0 km/h 30.6 km/h 93 % 0.0 mm 65 W/m2
14:30 10.4 °C 9.3 °C 1015.5 hPa South 11.3 km/h 27.4 km/h 93 % 0.0 mm 86 W/m2
14:35 10.4 °C 9.3 °C 1015.1 hPa SSE 24.1 km/h 29.0 km/h 93 % 0.0 mm 81 W/m2
14:40 10.4 °C 9.3 °C 1015.5 hPa South 9.7 km/h 29.0 km/h 93 % 0.0 mm 77 W/m2
14:45 10.4 °C 9.1 °C 1015.1 hPa SSW 22.5 km/h 29.0 km/h 92 % 0.0 mm 65 W/m2
14:50 10.3 °C 9.1 °C 1015.1 hPa SSW 27.4 km/h 29.0 km/h 92 % 0.0 mm 65 W/m2
14:55 10.3 °C 8.9 °C 1015.1 hPa South 14.5 km/h 32.2 km/h 91 % 0.0 mm 65 W/m2
15:00 10.3 °C 8.9 °C 1015.1 hPa South 12.9 km/h 32.2 km/h 91 % 0.0 mm 90 W/m2
15:05 10.3 °C 8.8 °C 1014.8 hPa South 16.1 km/h 32.2 km/h 90 % 0.0 mm 81 W/m2
15:10 10.3 °C 8.8 °C 1014.8 hPa SSW 20.9 km/h 29.0 km/h 90 % 0.0 mm 95 W/m2
15:15 10.4 °C 8.7 °C 1014.8 hPa SSE 8.0 km/h 29.0 km/h 89 % 0.0 mm 192 W/m2
15:20 10.6 °C 8.9 °C 1014.4 hPa South 11.3 km/h 27.4 km/h 89 % 0.0 mm 183 W/m2
15:25 10.6 °C 8.7 °C 1014.4 hPa SSE 17.7 km/h 40.2 km/h 88 % 0.0 mm 116 W/m2
15:30 10.6 °C 8.7 °C 1014.4 hPa SSW 17.7 km/h 40.2 km/h 88 % 0.0 mm 100 W/m2
15:35 10.5 °C 8.6 °C 1014.4 hPa South 25.7 km/h 30.6 km/h 88 % 0.0 mm 83 W/m2
15:40 10.4 °C 8.5 °C 1014.4 hPa South 16.1 km/h 30.6 km/h 88 % 0.0 mm 74 W/m2
15:45 10.4 °C 8.5 °C 1014.1 hPa South 22.5 km/h 30.6 km/h 88 % 0.0 mm 77 W/m2
15:50 10.3 °C 8.4 °C 1014.4 hPa South 20.9 km/h 30.6 km/h 88 % 0.0 mm 76 W/m2
15:55 10.3 °C 8.4 °C 1014.4 hPa SSW 11.3 km/h 33.8 km/h 88 % 0.0 mm 84 W/m2
16:00 10.3 °C 8.5 °C 1014.4 hPa SE 11.3 km/h 33.8 km/h 89 % 0.0 mm 88 W/m2
16:05 10.3 °C 8.5 °C 1014.4 hPa SSW 25.7 km/h 32.2 km/h 89 % 0.0 mm 90 W/m2
16:10 10.3 °C 8.5 °C 1014.4 hPa South 14.5 km/h 32.2 km/h 89 % 0.0 mm 83 W/m2
16:15 10.3 °C 8.5 °C 1014.4 hPa SW 16.1 km/h 32.2 km/h 89 % 0.0 mm 70 W/m2
16:20 10.2 °C 8.5 °C 1014.4 hPa South 17.7 km/h 32.2 km/h 89 % 0.0 mm 74 W/m2
16:25 10.2 °C 8.5 °C 1014.1 hPa South 9.7 km/h 30.6 km/h 89 % 0.0 mm 79 W/m2
16:30 10.2 °C 8.4 °C 1014.1 hPa SSW 11.3 km/h 30.6 km/h 89 % 0.0 mm 67 W/m2
16:35 10.2 °C 8.4 °C 1014.4 hPa SSW 12.9 km/h 35.4 km/h 89 % 0.0 mm 58 W/m2
16:40 10.2 °C 8.6 °C 1014.4 hPa SSE 14.5 km/h 35.4 km/h 90 % 0.0 mm 60 W/m2
16:45 10.2 °C 8.6 °C 1014.4 hPa SSW 12.9 km/h 30.6 km/h 90 % 0.0 mm 53 W/m2
16:50 10.2 °C 8.6 °C 1014.4 hPa SSW 12.9 km/h 30.6 km/h 90 % 0.0 mm 53 W/m2
16:55 10.2 °C 8.6 °C 1014.4 hPa South 11.3 km/h 25.7 km/h 90 % 0.0 mm 54 W/m2
17:00 10.2 °C 8.6 °C 1014.4 hPa South 20.9 km/h 32.2 km/h 90 % 0.0 mm 49 W/m2
17:05 10.1 °C 8.5 °C 1014.4 hPa SSE 14.5 km/h 32.2 km/h 90 % 0.0 mm 46 W/m2
17:10 10.1 °C 8.5 °C 1014.1 hPa SSE 9.7 km/h 29.0 km/h 90 % 0.0 mm 44 W/m2
17:15 10.1 °C 8.5 °C 1014.1 hPa SSW 17.7 km/h 35.4 km/h 90 % 0.0 mm 46 W/m2
17:20 10.1 °C 8.5 °C 1014.4 hPa South 14.5 km/h 35.4 km/h 90 % 0.0 mm 39 W/m2
17:25 10.1 °C 8.7 °C 1014.4 hPa SSW 17.7 km/h 33.8 km/h 91 % 0.0 mm 39 W/m2
17:30 10.1 °C 8.7 °C 1014.4 hPa SSW 16.1 km/h 35.4 km/h 91 % 0.0 mm 44 W/m2
17:35 10.1 °C 8.5 °C 1014.4 hPa SSW 17.7 km/h 35.4 km/h 90 % 0.0 mm 44 W/m2
17:40 10.1 °C 8.5 °C 1014.4 hPa SSW 17.7 km/h 30.6 km/h 90 % 0.0 mm 33 W/m2
17:45 10.1 °C 8.5 °C 1014.4 hPa South 12.9 km/h 30.6 km/h 90 % 0.0 mm 25 W/m2
17:50 10.1 °C 8.5 °C 1014.4 hPa SSW 16.1 km/h 29.0 km/h 90 % 0.0 mm 12 W/m2
17:55 10.1 °C 8.5 °C 1014.4 hPa SSE 20.9 km/h 30.6 km/h 90 % 0.0 mm 9 W/m2
18:00 10.1 °C 8.5 °C 1014.4 hPa South 17.7 km/h 32.2 km/h 90 % 0.0 mm 5 W/m2
18:05 10.1 °C 8.7 °C 1014.4 hPa South 19.3 km/h 32.2 km/h 91 % 0.0 mm 0 W/m2
18:10 10.0 °C 8.6 °C 1014.4 hPa South 22.5 km/h 29.0 km/h 91 % 0.0 mm 0 W/m2
18:15 10.0 °C 8.6 °C 1014.4 hPa South 20.9 km/h 29.0 km/h 91 % 0.0 mm 0 W/m2
18:20 9.9 °C 8.5 °C 1014.4 hPa South 17.7 km/h 38.6 km/h 91 % 0.0 mm 0 W/m2
18:25 9.9 °C 8.5 °C 1014.4 hPa South 16.1 km/h 38.6 km/h 91 % 0.0 mm 0 W/m2
18:30 9.9 °C 8.5 °C 1014.4 hPa SSW 11.3 km/h 29.0 km/h 91 % 0.0 mm 0 W/m2
18:35 9.9 °C 8.5 °C 1014.4 hPa South 14.5 km/h 25.7 km/h 91 % 0.0 mm 0 W/m2
18:40 9.9 °C 8.5 °C 1014.1 hPa SSW 11.3 km/h 35.4 km/h 91 % 0.3 mm 0 W/m2
18:45 9.9 °C 8.5 °C 1014.1 hPa SSW 20.9 km/h 35.4 km/h 91 % 0.3 mm 0 W/m2
18:50 10.0 °C 8.6 °C 1014.1 hPa SSE 17.7 km/h 27.4 km/h 91 % 0.3 mm 0 W/m2
18:55 10.0 °C 8.6 °C 1014.1 hPa SSW 16.1 km/h 27.4 km/h 91 % 0.3 mm 0 W/m2
19:00 10.1 °C 8.8 °C 1014.1 hPa South 19.3 km/h 27.4 km/h 92 % 0.3 mm 0 W/m2
19:05 10.1 °C 8.7 °C 1014.1 hPa SSE 24.1 km/h 32.2 km/h 91 % 0.3 mm 0 W/m2
19:10 10.1 °C 8.7 °C 1013.8 hPa SSE 22.5 km/h 32.2 km/h 91 % 0.3 mm 0 W/m2
19:15 10.2 °C 8.8 °C 1013.8 hPa SSW 17.7 km/h 35.4 km/h 91 % 0.3 mm 0 W/m2
19:20 10.2 °C 8.8 °C 1013.8 hPa SSW 32.2 km/h 35.4 km/h 91 % 0.3 mm 0 W/m2
19:25 10.2 °C 8.8 °C 1013.8 hPa South 19.3 km/h 35.4 km/h 91 % 0.3 mm 0 W/m2
19:30 10.2 °C 9.0 °C 1013.8 hPa SW 17.7 km/h 33.8 km/h 92 % 0.3 mm 0 W/m2
19:35 10.2 °C 8.9 °C 1013.8 hPa SSW 14.5 km/h 33.8 km/h 92 % 0.3 mm 0 W/m2
19:40 10.1 °C 9.0 °C 1014.1 hPa South 16.1 km/h 33.8 km/h 93 % 0.0 mm 0 W/m2
19:45 10.1 °C 9.1 °C 1014.1 hPa SSW 11.3 km/h 30.6 km/h 94 % 0.0 mm 0 W/m2
19:50 10.0 °C 9.1 °C 1014.1 hPa South 17.7 km/h 30.6 km/h 94 % 0.0 mm 0 W/m2
19:55 10.0 °C 9.2 °C 1014.1 hPa SW 16.1 km/h 32.2 km/h 95 % 0.0 mm 0 W/m2
20:00 9.9 °C 9.2 °C 1013.8 hPa South 30.6 km/h 32.2 km/h 95 % 0.3 mm 0 W/m2
20:05 9.9 °C 9.2 °C 1013.8 hPa SSW 17.7 km/h 30.6 km/h 95 % 0.3 mm 0 W/m2
20:10 9.9 °C 9.3 °C 1013.8 hPa South 22.5 km/h 30.6 km/h 96 % 0.3 mm 0 W/m2
20:15 9.9 °C 9.3 °C 1013.8 hPa SSW 22.5 km/h 30.6 km/h 96 % 0.3 mm 0 W/m2
20:20 10.0 °C 9.4 °C 1013.8 hPa SSW 14.5 km/h 27.4 km/h 96 % 0.3 mm 0 W/m2
20:25 10.0 °C 9.4 °C 1013.8 hPa SSW 14.5 km/h 25.7 km/h 96 % 0.5 mm 0 W/m2
20:30 10.0 °C 9.4 °C 1014.1 hPa South 16.1 km/h 25.7 km/h 96 % 0.5 mm 0 W/m2
20:35 10.0 °C 9.4 °C 1014.1 hPa South 16.1 km/h 25.7 km/h 96 % 0.5 mm 0 W/m2
20:40 10.0 °C 9.4 °C 1014.1 hPa SSW 16.1 km/h 22.5 km/h 96 % 0.5 mm 0 W/m2
20:45 10.1 °C 9.6 °C 1014.1 hPa South 14.5 km/h 25.7 km/h 97 % 0.5 mm 0 W/m2
20:50 10.1 °C 9.6 °C 1013.8 hPa South 17.7 km/h 29.0 km/h 97 % 0.5 mm 0 W/m2
20:55 10.1 °C 9.6 °C 1013.8 hPa SSW 19.3 km/h 29.0 km/h 97 % 0.5 mm 0 W/m2
21:00 10.1 °C 9.7 °C 1013.8 hPa SW 17.7 km/h 27.4 km/h 97 % 0.5 mm 0 W/m2
21:05 10.1 °C 9.7 °C 1013.8 hPa SSW 27.4 km/h 27.4 km/h 97 % 0.5 mm 0 W/m2
21:10 10.1 °C 9.6 °C 1013.8 hPa South 30.6 km/h 30.6 km/h 97 % 0.5 mm 0 W/m2
21:15 10.0 °C 9.5 °C 1013.8 hPa South 17.7 km/h 30.6 km/h 97 % 0.5 mm 0 W/m2
21:20 10.0 °C 9.5 °C 1013.4 hPa SSW 11.3 km/h 29.0 km/h 97 % 0.5 mm 0 W/m2
21:25 9.9 °C 9.5 °C 1013.4 hPa South 19.3 km/h 33.8 km/h 97 % 0.3 mm 0 W/m2
21:30 10.0 °C 9.5 °C 1013.4 hPa South 6.4 km/h 33.8 km/h 97 % 0.3 mm 0 W/m2
21:35 10.0 °C 9.5 °C 1013.4 hPa SSW 12.9 km/h 32.2 km/h 97 % 0.5 mm 0 W/m2
21:40 10.1 °C 9.6 °C 1013.4 hPa South 22.5 km/h 27.4 km/h 97 % 0.3 mm 0 W/m2
21:45 10.1 °C 9.6 °C 1013.4 hPa SSW 20.9 km/h 27.4 km/h 97 % 0.3 mm 0 W/m2
21:50 10.0 °C 9.5 °C 1013.4 hPa South 9.7 km/h 27.4 km/h 97 % 0.3 mm 0 W/m2
21:55 10.0 °C 9.5 °C 1013.4 hPa SSW 8.0 km/h 33.8 km/h 97 % 0.3 mm 0 W/m2
22:00 10.0 °C 9.5 °C 1013.4 hPa South 11.3 km/h 33.8 km/h 97 % 0.3 mm 0 W/m2
22:05 10.0 °C 9.5 °C 1013.8 hPa SW 6.4 km/h 25.7 km/h 97 % 0.3 mm 0 W/m2
22:10 10.0 °C 9.5 °C 1013.8 hPa South 22.5 km/h 22.5 km/h 97 % 0.3 mm 0 W/m2
22:15 10.0 °C 9.5 °C 1013.8 hPa South 8.0 km/h 22.5 km/h 97 % 0.3 mm 0 W/m2
22:20 10.1 °C 9.6 °C 1013.8 hPa SSW 11.3 km/h 22.5 km/h 97 % 0.5 mm 0 W/m2
22:30 10.0 °C 9.7 °C 1013.8 hPa SW 11.3 km/h 19.3 km/h 98 % 0.5 mm 0 W/m2
22:35 10.0 °C 9.7 °C 1013.8 hPa SSW 11.3 km/h 19.3 km/h 98 % 0.3 mm 0 W/m2
22:40 10.1 °C 9.8 °C 1013.8 hPa SSW 11.3 km/h 19.3 km/h 98 % 0.3 mm 0 W/m2
22:50 10.3 °C 10.0 °C 1013.8 hPa SW 3.2 km/h 20.9 km/h 98 % 0.3 mm 0 W/m2
22:55 10.3 °C 10.0 °C 1013.4 hPa SSW 11.3 km/h 16.1 km/h 98 % 0.3 mm 0 W/m2
23:00 10.3 °C 10.0 °C 1013.4 hPa WSW 8.0 km/h 16.1 km/h 98 % 0.3 mm 0 W/m2
23:05 10.3 °C 10.0 °C 1013.4 hPa South 9.7 km/h 16.1 km/h 98 % 0.3 mm 0 W/m2
23:10 10.3 °C 10.0 °C 1013.4 hPa SW 14.5 km/h 14.5 km/h 98 % 0.3 mm 0 W/m2
23:15 10.3 °C 10.0 °C 1013.4 hPa SSW 12.9 km/h 14.5 km/h 98 % 0.3 mm 0 W/m2
23:20 10.4 °C 10.1 °C 1013.4 hPa SW 4.8 km/h 17.7 km/h 98 % 0.0 mm 0 W/m2
23:25 10.4 °C 10.1 °C 1013.4 hPa SW 6.4 km/h 17.7 km/h 98 % 0.0 mm 0 W/m2
23:30 10.4 °C 10.1 °C 1013.4 hPa SW 9.7 km/h 12.9 km/h 98 % 0.0 mm 0 W/m2
23:35 10.4 °C 10.1 °C 1013.4 hPa WSW 9.7 km/h 19.3 km/h 98 % 0.0 mm 0 W/m2
23:40 10.5 °C 10.2 °C 1013.4 hPa WSW 11.3 km/h 19.3 km/h 98 % 0.0 mm 0 W/m2
23:45 10.5 °C 10.2 °C 1013.4 hPa SSW 11.3 km/h 19.3 km/h 98 % 0.0 mm 0 W/m2
23:50 10.4 °C 10.1 °C 1013.8 hPa SW 11.3 km/h 20.9 km/h 98 % 0.0 mm 0 W/m2
23:55 10.3 °C 10.0 °C 1013.8 hPa SW 12.9 km/h 20.9 km/h 98 % 0.0 mm 0 W/m2
Avec l'autorisation de Weather Underground - 1.75 mb